sensor_id;sensor_type;location;lat;lon;timestamp;pressure;altitude;pressure_sealevel;temperature;humidity
51452;BME280;37521;52.020;-1.740;2022-09-30T00:01:49;99312.06;;;4.93;100.00
51452;BME280;37521;52.020;-1.740;2022-09-30T00:04:21;99312.81;;;4.97;100.00
51452;BME280;37521;52.020;-1.740;2022-09-30T00:06:50;99302.75;;;4.85;100.00
51452;BME280;37521;52.020;-1.740;2022-09-30T00:09:19;99301.81;;;4.61;100.00
51452;BME280;37521;52.020;-1.740;2022-09-30T00:11:48;99304.94;;;4.46;100.00
51452;BME280;37521;52.020;-1.740;2022-09-30T00:14:18;99305.06;;;4.43;100.00
51452;BME280;37521;52.020;-1.740;2022-09-30T00:16:48;99299.06;;;4.39;100.00
51452;BME280;37521;52.020;-1.740;2022-09-30T00:19:16;99294.69;;;4.40;100.00
51452;BME280;37521;52.020;-1.740;2022-09-30T00:21:46;99304.50;;;4.33;100.00
51452;BME280;37521;52.020;-1.740;2022-09-30T00:24:15;99289.78;;;4.30;100.00
51452;BME280;37521;52.020;-1.740;2022-09-30T00:26:43;99294.03;;;4.33;100.00
51452;BME280;37521;52.020;-1.740;2022-09-30T00:29:11;99293.00;;;4.38;100.00
51452;BME280;37521;52.020;-1.740;2022-09-30T00:31:40;99304.16;;;4.44;100.00
51452;BME280;37521;52.020;-1.740;2022-09-30T00:34:09;99303.25;;;4.45;100.00
51452;BME280;37521;52.020;-1.740;2022-09-30T00:36:40;99297.31;;;4.40;100.00
51452;BME280;37521;52.020;-1.740;2022-09-30T00:39:14;99302.13;;;4.25;100.00
51452;BME280;37521;52.020;-1.740;2022-09-30T00:41:45;99306.13;;;4.09;100.00
51452;BME280;37521;52.020;-1.740;2022-09-30T00:47:39;99308.78;;;3.79;100.00
51452;BME280;37521;52.020;-1.740;2022-09-30T00:50:15;99310.75;;;3.71;100.00
51452;BME280;37521;52.020;-1.740;2022-09-30T00:52:49;99308.38;;;3.64;100.00
51452;BME280;37521;52.020;-1.740;2022-09-30T00:55:26;99296.41;;;3.57;100.00
51452;BME280;37521;52.020;-1.740;2022-09-30T00:57:58;99300.63;;;3.61;100.00
51452;BME280;37521;52.020;-1.740;2022-09-30T01:00:29;99301.53;;;3.60;100.00
51452;BME280;37521;52.020;-1.740;2022-09-30T01:02:57;99303.22;;;3.61;100.00
51452;BME280;37521;52.020;-1.740;2022-09-30T01:05:25;99289.47;;;3.55;100.00
51452;BME280;37521;52.020;-1.740;2022-09-30T01:07:55;99298.28;;;3.51;100.00
51452;BME280;37521;52.020;-1.740;2022-09-30T01:10:26;99305.16;;;3.55;100.00
51452;BME280;37521;52.020;-1.740;2022-09-30T01:12:55;99303.78;;;3.42;100.00
51452;BME280;37521;52.020;-1.740;2022-09-30T01:15:38;99306.84;;;3.25;100.00
51452;BME280;37521;52.020;-1.740;2022-09-30T01:18:19;99309.69;;;3.18;100.00
51452;BME280;37521;52.020;-1.740;2022-09-30T01:21:02;99311.44;;;3.17;100.00
51452;BME280;37521;52.020;-1.740;2022-09-30T01:23:49;99319.84;;;3.27;100.00
51452;BME280;37521;52.020;-1.740;2022-09-30T01:26:45;99317.91;;;3.35;100.00
51452;BME280;37521;52.020;-1.740;2022-09-30T01:32:11;99294.03;;;3.18;100.00
51452;BME280;37521;52.020;-1.740;2022-09-30T01:34:50;99301.97;;;3.13;100.00
51452;BME280;37521;52.020;-1.740;2022-09-30T01:37:26;99309.91;;;3.10;100.00
51452;BME280;37521;52.020;-1.740;2022-09-30T01:40:02;99308.16;;;3.11;100.00
51452;BME280;37521;52.020;-1.740;2022-09-30T01:42:37;99306.16;;;3.19;100.00
51452;BME280;37521;52.020;-1.740;2022-09-30T01:45:11;99309.34;;;3.30;100.00
51452;BME280;37521;52.020;-1.740;2022-09-30T01:47:45;99315.16;;;3.40;100.00
51452;BME280;37521;52.020;-1.740;2022-09-30T01:50:18;99318.31;;;3.51;100.00
51452;BME280;37521;52.020;-1.740;2022-09-30T01:52:56;99320.59;;;3.63;100.00
51452;BME280;37521;52.020;-1.740;2022-09-30T01:55:29;99317.88;;;3.66;100.00
51452;BME280;37521;52.020;-1.740;2022-09-30T01:58:05;99319.69;;;3.64;100.00
51452;BME280;37521;52.020;-1.740;2022-09-30T02:00:39;99322.91;;;3.43;100.00
51452;BME280;37521;52.020;-1.740;2022-09-30T02:03:14;99319.16;;;3.20;100.00
51452;BME280;37521;52.020;-1.740;2022-09-30T02:05:49;99322.94;;;3.10;100.00
51452;BME280;37521;52.020;-1.740;2022-09-30T02:08:23;99322.03;;;3.11;100.00
51452;BME280;37521;52.020;-1.740;2022-09-30T02:10:56;99325.28;;;3.19;100.00
51452;BME280;37521;52.020;-1.740;2022-09-30T02:13:30;99329.59;;;3.20;100.00
51452;BME280;37521;52.020;-1.740;2022-09-30T02:16:05;99320.97;;;3.18;100.00
51452;BME280;37521;52.020;-1.740;2022-09-30T02:18:43;99330.81;;;3.07;100.00
51452;BME280;37521;52.020;-1.740;2022-09-30T02:21:16;99329.31;;;2.98;100.00
51452;BME280;37521;52.020;-1.740;2022-09-30T02:23:48;99330.38;;;2.91;100.00
51452;BME280;37521;52.020;-1.740;2022-09-30T02:26:23;99330.50;;;2.87;100.00
51452;BME280;37521;52.020;-1.740;2022-09-30T02:28:57;99329.59;;;2.89;100.00
51452;BME280;37521;52.020;-1.740;2022-09-30T02:31:33;99322.13;;;2.74;100.00
51452;BME280;37521;52.020;-1.740;2022-09-30T02:34:07;99327.69;;;2.60;100.00
51452;BME280;37521;52.020;-1.740;2022-09-30T02:36:39;99323.72;;;2.45;100.00
51452;BME280;37521;52.020;-1.740;2022-09-30T02:39:14;99316.94;;;2.38;100.00
51452;BME280;37521;52.020;-1.740;2022-09-30T02:41:47;99311.84;;;2.35;100.00
51452;BME280;37521;52.020;-1.740;2022-09-30T02:44:18;99310.78;;;2.42;100.00
51452;BME280;37521;52.020;-1.740;2022-09-30T02:46:53;99305.44;;;2.49;100.00
51452;BME280;37521;52.020;-1.740;2022-09-30T02:49:29;99311.63;;;2.43;100.00
51452;BME280;37521;52.020;-1.740;2022-09-30T02:52:08;99300.56;;;2.33;100.00
51452;BME280;37521;52.020;-1.740;2022-09-30T02:54:47;99300.56;;;2.35;100.00
51452;BME280;37521;52.020;-1.740;2022-09-30T02:57:24;99293.41;;;2.43;100.00
51452;BME280;37521;52.020;-1.740;2022-09-30T02:59:56;99292.47;;;2.45;100.00
51452;BME280;37521;52.020;-1.740;2022-09-30T03:02:29;99285.50;;;2.46;100.00
51452;BME280;37521;52.020;-1.740;2022-09-30T03:04:58;99285.78;;;2.34;100.00
51452;BME280;37521;52.020;-1.740;2022-09-30T03:07:27;99288.72;;;2.22;100.00
51452;BME280;37521;52.020;-1.740;2022-09-30T03:09:57;99281.06;;;2.15;100.00
51452;BME280;37521;52.020;-1.740;2022-09-30T03:12:34;99279.44;;;2.10;100.00
51452;BME280;37521;52.020;-1.740;2022-09-30T03:15:18;99278.50;;;2.12;100.00
51452;BME280;37521;52.020;-1.740;2022-09-30T03:17:58;99279.16;;;2.21;100.00
51452;BME280;37521;52.020;-1.740;2022-09-30T03:20:38;99274.72;;;2.26;100.00
51452;BME280;37521;52.020;-1.740;2022-09-30T03:23:30;99274.03;;;2.17;100.00
51452;BME280;37521;52.020;-1.740;2022-09-30T03:26:09;99267.19;;;2.13;100.00
51452;BME280;37521;52.020;-1.740;2022-09-30T03:28:50;99263.72;;;2.13;100.00
51452;BME280;37521;52.020;-1.740;2022-09-30T03:31:25;99271.53;;;2.14;100.00
51452;BME280;37521;52.020;-1.740;2022-09-30T03:34:06;99262.69;;;2.22;100.00
51452;BME280;37521;52.020;-1.740;2022-09-30T03:36:50;99273.09;;;2.22;100.00
51452;BME280;37521;52.020;-1.740;2022-09-30T03:39:25;99263.03;;;2.06;100.00
51452;BME280;37521;52.020;-1.740;2022-09-30T03:42:01;99272.84;;;1.95;100.00
51452;BME280;37521;52.020;-1.740;2022-09-30T03:44:39;99277.44;;;1.84;100.00
51452;BME280;37521;52.020;-1.740;2022-09-30T03:47:09;99271.34;;;1.85;100.00
51452;BME280;37521;52.020;-1.740;2022-09-30T03:49:45;99281.44;;;1.99;100.00
51452;BME280;37521;52.020;-1.740;2022-09-30T03:52:17;99269.97;;;2.07;100.00
51452;BME280;37521;52.020;-1.740;2022-09-30T03:54:48;99276.03;;;2.08;100.00
51452;BME280;37521;52.020;-1.740;2022-09-30T03:57:17;99277.91;;;2.01;100.00
51452;BME280;37521;52.020;-1.740;2022-09-30T03:59:46;99272.72;;;2.01;100.00
51452;BME280;37521;52.020;-1.740;2022-09-30T04:02:14;99269.97;;;2.07;100.00
51452;BME280;37521;52.020;-1.740;2022-09-30T04:04:42;99265.28;;;2.20;100.00
51452;BME280;37521;52.020;-1.740;2022-09-30T04:07:11;99263.28;;;2.31;100.00
51452;BME280;37521;52.020;-1.740;2022-09-30T04:09:40;99263.94;;;2.41;100.00
51452;BME280;37521;52.020;-1.740;2022-09-30T04:12:09;99264.84;;;2.38;100.00
51452;BME280;37521;52.020;-1.740;2022-09-30T04:14:37;99266.69;;;2.35;100.00
51452;BME280;37521;52.020;-1.740;2022-09-30T04:17:05;99258.94;;;2.32;100.00
51452;BME280;37521;52.020;-1.740;2022-09-30T04:19:34;99260.72;;;2.30;100.00
51452;BME280;37521;52.020;-1.740;2022-09-30T04:22:07;99254.56;;;2.32;100.00
51452;BME280;37521;52.020;-1.740;2022-09-30T04:24:35;99264.16;;;2.32;100.00
51452;BME280;37521;52.020;-1.740;2022-09-30T04:27:06;99268.44;;;2.34;100.00
51452;BME280;37521;52.020;-1.740;2022-09-30T04:29:34;99273.59;;;2.36;100.00
51452;BME280;37521;52.020;-1.740;2022-09-30T04:32:03;99265.59;;;2.43;100.00
51452;BME280;37521;52.020;-1.740;2022-09-30T04:34:32;99258.53;;;2.49;100.00
51452;BME280;37521;52.020;-1.740;2022-09-30T04:37:00;99267.03;;;2.55;100.00
51452;BME280;37521;52.020;-1.740;2022-09-30T04:39:34;99260.69;;;2.65;100.00
51452;BME280;37521;52.020;-1.740;2022-09-30T04:42:02;99262.38;;;2.66;100.00
51452;BME280;37521;52.020;-1.740;2022-09-30T04:44:32;99261.59;;;2.64;100.00
51452;BME280;37521;52.020;-1.740;2022-09-30T04:47:01;99258.97;;;2.64;100.00
51452;BME280;37521;52.020;-1.740;2022-09-30T04:49:29;99265.09;;;2.63;100.00
51452;BME280;37521;52.020;-1.740;2022-09-30T04:51:57;99256.53;;;2.58;100.00
51452;BME280;37521;52.020;-1.740;2022-09-30T04:54:26;99249.69;;;2.54;100.00
51452;BME280;37521;52.020;-1.740;2022-09-30T04:56:54;99240.31;;;2.47;100.00
51452;BME280;37521;52.020;-1.740;2022-09-30T04:59:22;99237.78;;;2.44;100.00
51452;BME280;37521;52.020;-1.740;2022-09-30T05:01:52;99240.34;;;2.45;100.00
51452;BME280;37521;52.020;-1.740;2022-09-30T05:04:20;99236.00;;;2.46;100.00
51452;BME280;37521;52.020;-1.740;2022-09-30T05:06:49;99227.25;;;2.49;100.00
51452;BME280;37521;52.020;-1.740;2022-09-30T05:09:17;99221.31;;;2.43;100.00
51452;BME280;37521;52.020;-1.740;2022-09-30T05:11:46;99217.91;;;2.40;100.00
51452;BME280;37521;52.020;-1.740;2022-09-30T05:14:14;99219.81;;;2.33;100.00
51452;BME280;37521;52.020;-1.740;2022-09-30T05:16:42;99217.25;;;2.32;100.00
51452;BME280;37521;52.020;-1.740;2022-09-30T05:19:12;99214.66;;;2.32;100.00
51452;BME280;37521;52.020;-1.740;2022-09-30T05:21:40;99214.59;;;2.35;100.00
51452;BME280;37521;52.020;-1.740;2022-09-30T05:24:09;99219.97;;;2.27;100.00
51452;BME280;37521;52.020;-1.740;2022-09-30T05:26:38;99209.03;;;2.13;100.00
51452;BME280;37521;52.020;-1.740;2022-09-30T05:29:07;99212.69;;;2.06;100.00
51452;BME280;37521;52.020;-1.740;2022-09-30T05:31:36;99210.19;;;2.03;100.00
51452;BME280;37521;52.020;-1.740;2022-09-30T05:34:05;99212.88;;;1.98;100.00
51452;BME280;37521;52.020;-1.740;2022-09-30T05:36:34;99202.47;;;1.98;100.00
51452;BME280;37521;52.020;-1.740;2022-09-30T05:39:03;99199.97;;;1.95;100.00
51452;BME280;37521;52.020;-1.740;2022-09-30T05:41:32;99192.44;;;1.83;100.00
51452;BME280;37521;52.020;-1.740;2022-09-30T05:44:00;99188.34;;;1.73;100.00
51452;BME280;37521;52.020;-1.740;2022-09-30T05:46:28;99185.88;;;1.68;100.00
51452;BME280;37521;52.020;-1.740;2022-09-30T05:48:57;99183.97;;;1.75;100.00
51452;BME280;37521;52.020;-1.740;2022-09-30T05:51:25;99168.13;;;1.84;100.00
51452;BME280;37521;52.020;-1.740;2022-09-30T05:53:55;99167.16;;;1.88;100.00
51452;BME280;37521;52.020;-1.740;2022-09-30T05:56:23;99168.91;;;1.87;100.00
51452;BME280;37521;52.020;-1.740;2022-09-30T05:58:52;99167.31;;;1.80;100.00
51452;BME280;37521;52.020;-1.740;2022-09-30T06:01:20;99158.72;;;1.78;100.00
51452;BME280;37521;52.020;-1.740;2022-09-30T06:03:48;99161.28;;;1.80;100.00
51452;BME280;37521;52.020;-1.740;2022-09-30T06:06:17;99163.81;;;1.83;100.00
51452;BME280;37521;52.020;-1.740;2022-09-30T06:08:47;99169.81;;;1.85;100.00
51452;BME280;37521;52.020;-1.740;2022-09-30T06:11:18;99165.59;;;1.81;100.00
51452;BME280;37521;52.020;-1.740;2022-09-30T06:13:47;99163.06;;;1.78;100.00
51452;BME280;37521;52.020;-1.740;2022-09-30T06:16:16;99157.84;;;1.78;100.00
51452;BME280;37521;52.020;-1.740;2022-09-30T06:18:45;99160.31;;;1.84;100.00
51452;BME280;37521;52.020;-1.740;2022-09-30T06:21:15;99155.84;;;1.89;100.00
51452;BME280;37521;52.020;-1.740;2022-09-30T06:23:43;99167.88;;;1.93;100.00
51452;BME280;37521;52.020;-1.740;2022-09-30T06:26:13;99165.03;;;2.04;100.00
51452;BME280;37521;52.020;-1.740;2022-09-30T06:28:43;99147.50;;;2.10;100.00
51452;BME280;37521;52.020;-1.740;2022-09-30T06:31:11;99147.41;;;2.13;100.00
51452;BME280;37521;52.020;-1.740;2022-09-30T06:33:40;99138.75;;;2.13;100.00
51452;BME280;37521;52.020;-1.740;2022-09-30T06:36:09;99136.97;;;2.15;100.00
51452;BME280;37521;52.020;-1.740;2022-09-30T06:38:38;99136.88;;;2.18;100.00
51452;BME280;37521;52.020;-1.740;2022-09-30T06:41:06;99129.69;;;2.28;100.00
51452;BME280;37521;52.020;-1.740;2022-09-30T06:43:36;99123.16;;;2.44;100.00
51452;BME280;37521;52.020;-1.740;2022-09-30T06:46:10;99126.09;;;2.63;100.00
51452;BME280;37521;52.020;-1.740;2022-09-30T06:48:44;99120.03;;;2.92;100.00
51452;BME280;37521;52.020;-1.740;2022-09-30T06:51:12;99119.56;;;3.07;100.00
51452;BME280;37521;52.020;-1.740;2022-09-30T06:53:41;99104.22;;;3.26;100.00
51452;BME280;37521;52.020;-1.740;2022-09-30T06:56:09;99101.91;;;3.45;100.00
51452;BME280;37521;52.020;-1.740;2022-09-30T06:58:37;99103.81;;;3.66;100.00
51452;BME280;37521;52.020;-1.740;2022-09-30T07:01:07;99111.91;;;4.10;100.00
51452;BME280;37521;52.020;-1.740;2022-09-30T07:03:38;99108.47;;;4.81;100.00
51452;BME280;37521;52.020;-1.740;2022-09-30T07:06:07;99116.22;;;5.52;100.00
51452;BME280;37521;52.020;-1.740;2022-09-30T07:08:36;99114.22;;;6.00;100.00
51452;BME280;37521;52.020;-1.740;2022-09-30T07:11:08;99095.56;;;6.28;100.00
51452;BME280;37521;52.020;-1.740;2022-09-30T07:13:40;99091.16;;;6.49;100.00
51452;BME280;37521;52.020;-1.740;2022-09-30T07:16:09;99104.53;;;6.64;100.00
51452;BME280;37521;52.020;-1.740;2022-09-30T07:18:40;99111.03;;;6.74;100.00
51452;BME280;37521;52.020;-1.740;2022-09-30T07:21:09;99092.03;;;6.88;100.00
51452;BME280;37521;52.020;-1.740;2022-09-30T07:23:39;99080.28;;;6.96;100.00
51452;BME280;37521;52.020;-1.740;2022-09-30T07:26:11;99080.91;;;7.01;100.00
51452;BME280;37521;52.020;-1.740;2022-09-30T07:28:40;99093.63;;;7.10;100.00
51452;BME280;37521;52.020;-1.740;2022-09-30T07:31:12;99096.94;;;7.14;100.00
51452;BME280;37521;52.020;-1.740;2022-09-30T07:34:03;99092.53;;;7.15;100.00
51452;BME280;37521;52.020;-1.740;2022-09-30T07:36:34;99088.22;;;7.14;100.00
51452;BME280;37521;52.020;-1.740;2022-09-30T07:39:04;99091.78;;;7.13;100.00
51452;BME280;37521;52.020;-1.740;2022-09-30T07:41:36;99088.22;;;7.14;100.00
51452;BME280;37521;52.020;-1.740;2022-09-30T07:44:07;99085.59;;;7.14;100.00
51452;BME280;37521;52.020;-1.740;2022-09-30T07:46:38;99081.25;;;7.13;100.00
51452;BME280;37521;52.020;-1.740;2022-09-30T07:49:11;99073.47;;;7.11;100.00
51452;BME280;37521;52.020;-1.740;2022-09-30T07:51:41;99067.38;;;7.10;100.00
51452;BME280;37521;52.020;-1.740;2022-09-30T07:54:13;99055.19;;;7.09;100.00
51452;BME280;37521;52.020;-1.740;2022-09-30T07:56:43;99052.38;;;7.13;100.00
51452;BME280;37521;52.020;-1.740;2022-09-30T07:59:33;99053.16;;;7.15;100.00
51452;BME280;37521;52.020;-1.740;2022-09-30T08:02:04;99056.44;;;7.20;100.00
51452;BME280;37521;52.020;-1.740;2022-09-30T08:04:34;99051.91;;;7.23;100.00
51452;BME280;37521;52.020;-1.740;2022-09-30T08:07:09;99042.72;;;7.32;100.00
51452;BME280;37521;52.020;-1.740;2022-09-30T08:09:38;99045.69;;;7.43;100.00
51452;BME280;37521;52.020;-1.740;2022-09-30T08:12:06;99035.63;;;7.51;100.00
51452;BME280;37521;52.020;-1.740;2022-09-30T08:14:35;99038.72;;;7.59;100.00
51452;BME280;37521;52.020;-1.740;2022-09-30T08:17:03;99025.22;;;7.67;100.00
51452;BME280;37521;52.020;-1.740;2022-09-30T08:19:33;99031.00;;;7.74;100.00
51452;BME280;37521;52.020;-1.740;2022-09-30T08:22:07;99030.69;;;7.80;100.00
51452;BME280;37521;52.020;-1.740;2022-09-30T08:24:36;99032.25;;;7.84;100.00
51452;BME280;37521;52.020;-1.740;2022-09-30T08:27:04;99025.13;;;7.86;100.00
51452;BME280;37521;52.020;-1.740;2022-09-30T08:29:33;99018.94;;;7.87;100.00
51452;BME280;37521;52.020;-1.740;2022-09-30T08:32:20;99024.06;;;7.90;100.00
51452;BME280;37521;52.020;-1.740;2022-09-30T08:34:50;99015.25;;;7.91;100.00
51452;BME280;37521;52.020;-1.740;2022-09-30T08:37:18;99017.69;;;7.94;100.00
51452;BME280;37521;52.020;-1.740;2022-09-30T08:39:46;99013.38;;;7.93;100.00
51452;BME280;37521;52.020;-1.740;2022-09-30T08:42:29;99000.41;;;7.90;100.00
51452;BME280;37521;52.020;-1.740;2022-09-30T08:45:11;99008.44;;;7.87;100.00
51452;BME280;37521;52.020;-1.740;2022-09-30T08:47:48;98991.16;;;7.83;100.00
51452;BME280;37521;52.020;-1.740;2022-09-30T08:50:24;99009.84;;;7.77;100.00
51452;BME280;37521;52.020;-1.740;2022-09-30T08:52:59;98998.50;;;7.76;100.00
51452;BME280;37521;52.020;-1.740;2022-09-30T08:55:32;98999.34;;;7.77;100.00
51452;BME280;37521;52.020;-1.740;2022-09-30T08:58:03;99002.91;;;7.76;100.00
51452;BME280;37521;52.020;-1.740;2022-09-30T09:00:32;99010.59;;;7.79;100.00
51452;BME280;37521;52.020;-1.740;2022-09-30T09:03:02;99012.22;;;7.81;100.00
51452;BME280;37521;52.020;-1.740;2022-09-30T09:05:44;99005.13;;;7.83;100.00
51452;BME280;37521;52.020;-1.740;2022-09-30T09:08:26;99001.66;;;7.83;100.00
51452;BME280;37521;52.020;-1.740;2022-09-30T09:11:02;98993.78;;;7.83;100.00
51452;BME280;37521;52.020;-1.740;2022-09-30T09:13:41;98985.81;;;7.84;100.00
51452;BME280;37521;52.020;-1.740;2022-09-30T09:16:19;98984.78;;;7.87;100.00
51452;BME280;37521;52.020;-1.740;2022-09-30T09:18:57;98981.06;;;7.91;100.00
51452;BME280;37521;52.020;-1.740;2022-09-30T09:21:39;98978.38;;;7.92;100.00
51452;BME280;37521;52.020;-1.740;2022-09-30T09:24:14;98973.81;;;7.96;100.00
51452;BME280;37521;52.020;-1.740;2022-09-30T09:26:45;98978.13;;;7.97;100.00
51452;BME280;37521;52.020;-1.740;2022-09-30T09:29:23;98985.00;;;8.00;100.00
51452;BME280;37521;52.020;-1.740;2022-09-30T09:31:53;98966.69;;;7.98;100.00
51452;BME280;37521;52.020;-1.740;2022-09-30T09:34:23;98980.75;;;7.97;100.00
51452;BME280;37521;52.020;-1.740;2022-09-30T09:37:05;98966.69;;;7.98;100.00
51452;BME280;37521;52.020;-1.740;2022-09-30T09:39:50;98958.72;;;8.00;100.00
51452;BME280;37521;52.020;-1.740;2022-09-30T09:42:39;98954.16;;;8.03;100.00
51452;BME280;37521;52.020;-1.740;2022-09-30T09:45:21;98957.38;;;8.08;100.00
51452;BME280;37521;52.020;-1.740;2022-09-30T09:47:51;98944.84;;;8.13;100.00
51452;BME280;37521;52.020;-1.740;2022-09-30T09:50:24;98943.66;;;8.19;100.00
51452;BME280;37521;52.020;-1.740;2022-09-30T09:53:09;98939.78;;;8.26;100.00
51452;BME280;37521;52.020;-1.740;2022-09-30T09:55:42;98928.06;;;8.32;100.00
51452;BME280;37521;52.020;-1.740;2022-09-30T09:58:12;98924.34;;;8.36;100.00
51452;BME280;37521;52.020;-1.740;2022-09-30T10:00:42;98913.69;;;8.39;100.00
51452;BME280;37521;52.020;-1.740;2022-09-30T10:03:35;98906.41;;;8.44;100.00
51452;BME280;37521;52.020;-1.740;2022-09-30T10:06:07;98901.88;;;8.46;100.00
51452;BME280;37521;52.020;-1.740;2022-09-30T10:08:38;98890.28;;;8.50;100.00
51452;BME280;37521;52.020;-1.740;2022-09-30T10:11:18;98882.28;;;8.52;100.00
51452;BME280;37521;52.020;-1.740;2022-09-30T10:13:48;98881.97;;;8.58;100.00
51452;BME280;37521;52.020;-1.740;2022-09-30T10:16:27;98886.59;;;8.68;100.00
51452;BME280;37521;52.020;-1.740;2022-09-30T10:18:57;98882.69;;;8.76;100.00
51452;BME280;37521;52.020;-1.740;2022-09-30T10:21:29;98879.53;;;8.85;100.00
51452;BME280;37521;52.020;-1.740;2022-09-30T10:24:18;98867.53;;;8.95;100.00
51452;BME280;37521;52.020;-1.740;2022-09-30T10:26:46;98852.16;;;9.03;100.00
51452;BME280;37521;52.020;-1.740;2022-09-30T10:29:25;98851.88;;;9.08;100.00
51452;BME280;37521;52.020;-1.740;2022-09-30T10:31:54;98866.22;;;9.18;100.00
51452;BME280;37521;52.020;-1.740;2022-09-30T10:34:29;98867.63;;;9.23;100.00
51452;BME280;37521;52.020;-1.740;2022-09-30T10:37:01;98856.63;;;9.31;100.00
51452;BME280;37521;52.020;-1.740;2022-09-30T10:39:37;98845.81;;;9.36;100.00
51452;BME280;37521;52.020;-1.740;2022-09-30T10:42:21;98830.41;;;9.44;100.00
51452;BME280;37521;52.020;-1.740;2022-09-30T10:44:54;98818.47;;;9.52;100.00
51452;BME280;37521;52.020;-1.740;2022-09-30T10:47:25;98807.34;;;9.62;100.00
51452;BME280;37521;52.020;-1.740;2022-09-30T10:50:04;98812.06;;;9.71;100.00
51452;BME280;37521;52.020;-1.740;2022-09-30T10:52:36;98800.09;;;9.79;100.00
51452;BME280;37521;52.020;-1.740;2022-09-30T10:55:25;98792.38;;;9.91;100.00
51452;BME280;37521;52.020;-1.740;2022-09-30T10:57:59;98784.72;;;10.00;100.00
51452;BME280;37521;52.020;-1.740;2022-09-30T11:00:31;98788.47;;;10.10;100.00
51452;BME280;37521;52.020;-1.740;2022-09-30T11:03:06;98802.13;;;10.17;100.00
51452;BME280;37521;52.020;-1.740;2022-09-30T11:05:39;98780.06;;;10.18;100.00
51452;BME280;37521;52.020;-1.740;2022-09-30T11:08:14;98778.53;;;10.28;100.00
51452;BME280;37521;52.020;-1.740;2022-09-30T11:10:55;98762.88;;;10.40;100.00
51452;BME280;37521;52.020;-1.740;2022-09-30T11:13:30;98744.53;;;10.51;100.00
51452;BME280;37521;52.020;-1.740;2022-09-30T11:16:11;98753.97;;;10.68;100.00
51452;BME280;37521;52.020;-1.740;2022-09-30T11:18:46;98761.50;;;10.86;100.00
51452;BME280;37521;52.020;-1.740;2022-09-30T11:21:20;98739.13;;;11.05;100.00
51452;BME280;37521;52.020;-1.740;2022-09-30T11:23:53;98725.59;;;11.22;100.00
51452;BME280;37521;52.020;-1.740;2022-09-30T11:26:34;98720.41;;;11.33;100.00
51452;BME280;37521;52.020;-1.740;2022-09-30T11:29:26;98724.31;;;11.40;100.00
51452;BME280;37521;52.020;-1.740;2022-09-30T11:32:06;98724.97;;;11.44;100.00
51452;BME280;37521;52.020;-1.740;2022-09-30T11:34:47;98729.41;;;11.43;100.00
51452;BME280;37521;52.020;-1.740;2022-09-30T11:37:26;98717.34;;;11.39;100.00
51452;BME280;37521;52.020;-1.740;2022-09-30T11:40:13;98704.25;;;11.38;100.00
51452;BME280;37521;52.020;-1.740;2022-09-30T11:42:54;98711.53;;;11.34;100.00
51452;BME280;37521;52.020;-1.740;2022-09-30T11:45:31;98706.47;;;11.31;100.00
51452;BME280;37521;52.020;-1.740;2022-09-30T11:48:15;98693.16;;;11.33;100.00
51452;BME280;37521;52.020;-1.740;2022-09-30T11:50:52;98703.59;;;11.34;100.00
51452;BME280;37521;52.020;-1.740;2022-09-30T11:53:33;98700.22;;;11.32;100.00
51452;BME280;37521;52.020;-1.740;2022-09-30T11:56:11;98695.38;;;11.26;100.00
51452;BME280;37521;52.020;-1.740;2022-09-30T11:58:48;98695.81;;;11.20;100.00
51452;BME280;37521;52.020;-1.740;2022-09-30T12:01:26;98673.28;;;11.14;100.00
51452;BME280;37521;52.020;-1.740;2022-09-30T12:04:00;98676.16;;;11.11;100.00
51452;BME280;37521;52.020;-1.740;2022-09-30T12:06:34;98664.00;;;11.09;100.00
51452;BME280;37521;52.020;-1.740;2022-09-30T12:09:08;98663.69;;;11.01;100.00
51452;BME280;37521;52.020;-1.740;2022-09-30T12:11:47;98653.03;;;10.89;100.00
51452;BME280;37521;52.020;-1.740;2022-09-30T12:14:24;98662.53;;;10.79;100.00
51452;BME280;37521;52.020;-1.740;2022-09-30T12:16:54;98661.38;;;10.71;100.00
51452;BME280;37521;52.020;-1.740;2022-09-30T12:19:27;98653.97;;;10.63;100.00
51452;BME280;37521;52.020;-1.740;2022-09-30T12:22:02;98648.19;;;10.58;100.00
51452;BME280;37521;52.020;-1.740;2022-09-30T12:24:36;98644.25;;;10.51;100.00
51452;BME280;37521;52.020;-1.740;2022-09-30T12:27:12;98643.00;;;10.44;100.00
51452;BME280;37521;52.020;-1.740;2022-09-30T12:29:49;98632.94;;;10.36;100.00
51452;BME280;37521;52.020;-1.740;2022-09-30T12:33:06;98622.91;;;10.28;100.00
51452;BME280;37521;52.020;-1.740;2022-09-30T12:36:06;98621.44;;;10.24;100.00
51452;BME280;37521;52.020;-1.740;2022-09-30T12:38:51;98603.44;;;10.17;100.00
51452;BME280;37521;52.020;-1.740;2022-09-30T12:44:40;98612.25;;;10.03;100.00
51452;BME280;37521;52.020;-1.740;2022-09-30T12:47:21;98617.75;;;10.00;100.00
51452;BME280;37521;52.020;-1.740;2022-09-30T12:49:56;98615.22;;;9.98;100.00
51452;BME280;37521;52.020;-1.740;2022-09-30T12:52:31;98617.00;;;9.98;100.00
51452;BME280;37521;52.020;-1.740;2022-09-30T12:55:05;98608.34;;;9.96;100.00
51452;BME280;37521;52.020;-1.740;2022-09-30T12:57:39;98606.88;;;9.92;100.00
51452;BME280;37521;52.020;-1.740;2022-09-30T13:00:13;98605.06;;;9.92;100.00
51452;BME280;37521;52.020;-1.740;2022-09-30T13:02:46;98607.81;;;9.91;100.00
51452;BME280;37521;52.020;-1.740;2022-09-30T13:08:32;98600.25;;;9.99;100.00
51452;BME280;37521;52.020;-1.740;2022-09-30T13:11:05;98602.75;;;10.00;100.00
51452;BME280;37521;52.020;-1.740;2022-09-30T13:13:56;98607.41;;;9.97;100.00
51452;BME280;37521;52.020;-1.740;2022-09-30T13:19:34;98602.22;;;9.95;100.00
51452;BME280;37521;52.020;-1.740;2022-09-30T13:22:42;98597.06;;;9.94;100.00
51452;BME280;37521;52.020;-1.740;2022-09-30T13:25:13;98587.84;;;9.87;100.00
51452;BME280;37521;52.020;-1.740;2022-09-30T13:27:42;98587.72;;;9.75;100.00
51452;BME280;37521;52.020;-1.740;2022-09-30T13:30:33;98588.97;;;9.70;100.00
51452;BME280;37521;52.020;-1.740;2022-09-30T13:35:57;98563.44;;;9.58;100.00
51452;BME280;37521;52.020;-1.740;2022-09-30T13:38:34;98566.75;;;9.47;100.00
51452;BME280;37521;52.020;-1.740;2022-09-30T13:41:07;98556.59;;;9.41;100.00